createdAt,value
2018-09-05T00:00:32.576Z,4.12
2018-09-05T00:03:01.639Z,4.45
2018-09-05T00:05:30.808Z,4.58
2018-09-05T00:07:59.202Z,4.50
2018-09-05T00:10:27.640Z,4.53
2018-09-05T00:12:56.004Z,4.28
2018-09-05T00:15:24.624Z,4.37
2018-09-05T00:17:53.065Z,4.90
2018-09-05T00:20:21.979Z,4.78
2018-09-05T00:22:50.384Z,4.92
2018-09-05T00:25:19.090Z,4.45
2018-09-05T00:27:47.688Z,4.37
2018-09-05T00:30:16.213Z,4.65
2018-09-05T00:32:44.725Z,4.95
2018-09-05T00:35:13.108Z,4.58
2018-09-05T00:37:41.476Z,4.55
2018-09-05T00:40:10.072Z,4.55
2018-09-05T00:42:39.316Z,4.80
2018-09-05T00:45:08.112Z,4.92
2018-09-05T00:47:36.636Z,4.72
2018-09-05T00:50:05.273Z,4.92
2018-09-05T00:52:33.821Z,4.80
2018-09-05T00:55:02.945Z,5.05
2018-09-05T00:57:31.444Z,5.03
2018-09-05T00:59:59.835Z,5.00
2018-09-05T01:02:28.485Z,4.78
2018-09-05T01:04:57.436Z,4.95
2018-09-05T01:07:27.745Z,4.67
2018-09-05T01:09:56.420Z,5.55
2018-09-05T01:12:25.412Z,4.92
2018-09-05T01:14:54.732Z,5.15
2018-09-05T01:17:23.212Z,5.25
2018-09-05T01:19:51.703Z,4.75
2018-09-05T01:22:20.169Z,5.17
2018-09-05T01:24:48.856Z,5.17
2018-09-05T01:27:17.471Z,4.80
2018-09-05T01:29:46.213Z,5.25
2018-09-05T01:32:15.228Z,5.10
2018-09-05T01:34:43.892Z,5.30
2018-09-05T01:37:12.488Z,4.90
2018-09-05T01:39:41.716Z,5.42
2018-09-05T01:42:11.209Z,5.10
2018-09-05T01:44:40.620Z,5.15
2018-09-05T01:47:09.116Z,4.70
2018-09-05T01:49:37.500Z,5.37
2018-09-05T01:52:06.129Z,5.42
2018-09-05T01:54:35.589Z,5.40
2018-09-05T01:57:04.108Z,5.10
2018-09-05T01:59:32.713Z,5.95
2018-09-05T02:02:01.172Z,5.33
2018-09-05T02:04:29.563Z,5.35
2018-09-05T02:06:58.017Z,5.12
2018-09-05T02:09:27.013Z,5.33
2018-09-05T02:11:55.518Z,5.60
2018-09-05T02:14:23.901Z,5.80
2018-09-05T02:16:52.585Z,5.47
2018-09-05T02:19:21.151Z,5.60
2018-09-05T02:21:49.616Z,5.33
2018-09-05T02:24:18.141Z,5.45
2018-09-05T02:26:46.612Z,5.47
2018-09-05T02:29:15.004Z,5.08
2018-09-05T02:31:43.491Z,5.15
2018-09-05T02:34:11.940Z,5.45
2018-09-05T02:36:40.472Z,5.75
2018-09-05T02:39:10.957Z,5.58
2018-09-05T02:41:39.888Z,5.90
2018-09-05T02:44:23.564Z,5.83
2018-09-05T02:46:52.620Z,5.92
2018-09-05T02:49:21.027Z,5.45
2018-09-05T02:51:49.617Z,5.25
2018-09-05T02:54:17.988Z,5.37
2018-09-05T02:56:46.756Z,5.85
2018-09-05T02:59:15.609Z,5.75
2018-09-05T03:01:43.994Z,5.85
2018-09-05T03:04:12.681Z,5.83
2018-09-05T03:06:41.910Z,6.10
2018-09-05T03:09:10.347Z,5.85
2018-09-05T03:11:39.359Z,6.00
2018-09-05T03:14:07.728Z,5.87
2018-09-05T03:16:36.224Z,5.65
2018-09-05T03:19:04.680Z,6.10
2018-09-05T03:21:33.113Z,5.75
2018-09-05T03:24:01.710Z,5.83
2018-09-05T03:26:30.142Z,6.58
2018-09-05T03:28:58.736Z,5.85
2018-09-05T03:31:27.109Z,6.35
2018-09-05T03:33:55.667Z,6.05
2018-09-05T03:36:24.108Z,6.30
2018-09-05T03:38:52.492Z,6.17
2018-09-05T03:41:20.897Z,5.87
2018-09-05T03:43:49.535Z,6.05
2018-09-05T03:46:18.119Z,6.42
2018-09-05T03:48:46.571Z,6.20
2018-09-05T03:51:15.552Z,11.53
2018-09-05T03:53:44.063Z,7.60
2018-09-05T03:56:12.552Z,7.30
2018-09-05T03:58:40.912Z,6.78
2018-09-05T04:01:09.300Z,6.83
2018-09-05T04:03:37.970Z,6.58
2018-09-05T04:06:06.528Z,6.40
2018-09-05T04:08:34.980Z,6.58
2018-09-05T04:11:03.397Z,5.85
2018-09-05T04:13:31.917Z,6.45
2018-09-05T04:16:00.299Z,7.40
2018-09-05T04:18:28.771Z,6.17
2018-09-05T04:20:57.168Z,7.08
2018-09-05T04:23:26.093Z,7.10
2018-09-05T04:25:54.612Z,8.75
2018-09-05T04:28:22.971Z,7.25
2018-09-05T04:30:51.585Z,7.67
2018-09-05T04:33:20.513Z,6.92
2018-09-05T04:35:48.881Z,7.05
2018-09-05T04:38:17.292Z,6.42
2018-09-05T04:40:45.677Z,6.65
2018-09-05T04:43:14.093Z,7.28
2018-09-05T04:45:42.564Z,7.30
2018-09-05T04:48:11.536Z,7.08
2018-09-05T04:50:39.926Z,7.30
2018-09-05T04:53:08.413Z,7.35
2018-09-05T04:55:36.908Z,7.30
2018-09-05T04:58:05.508Z,7.37
2018-09-05T05:00:34.601Z,7.37
2018-09-05T05:03:03.199Z,7.17
2018-09-05T05:05:32.004Z,7.67
2018-09-05T05:08:00.373Z,7.42
2018-09-05T05:10:28.746Z,7.65
2018-09-05T05:12:57.153Z,7.37
2018-09-05T05:15:25.528Z,7.40
2018-09-05T05:17:54.189Z,7.47
2018-09-05T05:20:23.156Z,7.60
2018-09-05T05:22:52.276Z,7.58
2018-09-05T05:25:20.986Z,7.30
2018-09-05T05:27:49.433Z,7.20
2018-09-05T05:30:17.919Z,7.50
2018-09-05T05:32:47.031Z,7.62
2018-09-05T05:35:15.308Z,7.70
2018-09-05T05:37:44.011Z,8.58
2018-09-05T05:40:12.537Z,8.28
2018-09-05T05:42:40.892Z,7.47
2018-09-05T05:45:10.260Z,7.60
2018-09-05T05:47:38.739Z,8.45
2018-09-05T05:50:07.248Z,8.60
2018-09-05T05:52:35.793Z,8.15
2018-09-05T05:55:04.331Z,8.63
2018-09-05T05:57:32.696Z,8.15
2018-09-05T06:00:01.280Z,7.90
2018-09-05T06:02:29.680Z,8.58
2018-09-05T06:04:58.232Z,8.13
2018-09-05T06:07:26.612Z,8.75
2018-09-05T06:09:55.013Z,8.90
2018-09-05T06:12:23.392Z,8.50
2018-09-05T06:14:52.660Z,8.00
2018-09-05T06:17:22.028Z,8.50
2018-09-05T06:19:50.510Z,8.88
2018-09-05T06:22:19.677Z,9.23
2018-09-05T06:24:48.996Z,8.98
2018-09-05T06:27:17.500Z,9.08
2018-09-05T06:29:46.587Z,8.95
2018-09-05T06:32:14.995Z,9.35
2018-09-05T06:34:43.373Z,9.10
2018-09-05T06:37:11.913Z,9.20
2018-09-05T06:39:40.408Z,9.23
2018-09-05T06:42:08.786Z,9.38
2018-09-05T06:44:38.133Z,8.90
2018-09-05T06:47:06.644Z,9.30
2018-09-05T06:49:35.028Z,9.03
2018-09-05T06:52:03.456Z,8.88
2018-09-05T06:54:32.033Z,8.73
2018-09-05T06:57:00.521Z,9.33
2018-09-05T06:59:29.067Z,9.53
2018-09-05T07:01:57.443Z,10.08
2018-09-05T07:04:26.531Z,10.93
2018-09-05T07:06:55.315Z,11.53
2018-09-05T07:09:24.804Z,11.38
2018-09-05T07:11:53.216Z,11.95
2018-09-05T07:14:21.762Z,11.45
2018-09-05T07:16:50.240Z,11.00
2018-09-05T07:19:18.891Z,12.35
2018-09-05T07:21:47.323Z,11.22
2018-09-05T07:24:15.945Z,11.78
2018-09-05T07:26:44.324Z,11.38
2018-09-05T07:29:13.530Z,11.30
2018-09-05T07:31:42.001Z,11.03
2018-09-05T07:34:10.408Z,11.68
2018-09-05T07:36:38.968Z,11.97
2018-09-05T07:39:09.453Z,12.43
2018-09-05T07:41:38.727Z,12.37
2018-09-05T07:44:07.430Z,12.75
2018-09-05T07:46:35.933Z,12.68
2018-09-05T07:49:04.364Z,12.43
2018-09-05T07:51:33.365Z,12.03
2018-09-05T07:54:01.957Z,12.55
2018-09-05T07:56:30.675Z,12.20
2018-09-05T07:58:59.293Z,12.13
2018-09-05T08:01:27.689Z,11.85
2018-09-05T08:03:56.308Z,10.98
2018-09-05T08:06:24.853Z,11.45
2018-09-05T08:08:53.335Z,10.63
2018-09-05T08:11:21.868Z,12.07
2018-09-05T08:13:50.453Z,11.65
2018-09-05T08:16:19.020Z,13.32
2018-09-05T08:18:47.589Z,13.32
2018-09-05T08:21:16.892Z,12.05
2018-09-05T08:23:45.686Z,13.13
2018-09-05T08:26:15.052Z,13.72
2018-09-05T08:28:44.281Z,13.78
2018-09-05T08:31:12.705Z,12.47
2018-09-05T08:33:41.112Z,13.35
2018-09-05T08:36:09.970Z,14.18
2018-09-05T08:38:38.462Z,14.03
2018-09-05T08:41:08.402Z,13.43
2018-09-05T08:43:38.944Z,13.15
2018-09-05T08:46:07.485Z,14.03
2018-09-05T08:48:36.036Z,12.40
2018-09-05T08:51:04.825Z,12.30
2018-09-05T08:53:33.296Z,12.50
2018-09-05T08:56:02.481Z,11.97
2018-09-05T08:58:30.956Z,12.43
2018-09-05T09:00:59.364Z,12.25
2018-09-05T09:03:28.360Z,12.28
2018-09-05T09:05:56.788Z,11.00
2018-09-05T09:08:25.967Z,11.08
2018-09-05T09:10:54.418Z,10.20
2018-09-05T09:13:23.092Z,11.40
2018-09-05T09:15:52.129Z,11.22
2018-09-05T09:18:22.344Z,11.80
2018-09-05T09:20:52.409Z,10.93
2018-09-05T09:23:21.024Z,9.80
2018-09-05T09:25:49.664Z,9.90
2018-09-05T09:28:18.227Z,9.93
2018-09-05T09:30:47.204Z,10.40
2018-09-05T09:33:15.608Z,9.60
2018-09-05T09:35:47.897Z,10.40
2018-09-05T09:38:16.279Z,9.58
2018-09-05T09:40:44.865Z,9.00
2018-09-05T09:43:13.306Z,9.05
2018-09-05T09:45:41.710Z,8.63
2018-09-05T09:48:10.740Z,9.58
2018-09-05T09:50:39.308Z,8.63
2018-09-05T09:53:07.777Z,8.80
2018-09-05T09:55:36.420Z,9.15
2018-09-05T09:58:05.542Z,8.90
2018-09-05T10:00:39.521Z,8.80
2018-09-05T10:03:13.460Z,8.15
2018-09-05T10:05:47.320Z,7.60
2018-09-05T10:08:21.988Z,7.80
2018-09-05T10:10:55.701Z,7.30
2018-09-05T10:13:29.920Z,7.10
2018-09-05T10:16:04.236Z,7.70
2018-09-05T10:18:34.888Z,6.70
2018-09-05T10:21:03.357Z,6.92
2018-09-05T10:23:31.693Z,6.15
2018-09-05T10:26:00.228Z,6.45
2018-09-05T10:28:29.340Z,6.33
2018-09-05T10:30:57.764Z,5.72
2018-09-05T10:33:26.253Z,5.65
2018-09-05T10:35:54.681Z,5.58
2018-09-05T10:38:23.225Z,6.40
2018-09-05T10:40:51.752Z,5.87
2018-09-05T10:43:20.244Z,5.67
2018-09-05T10:45:49.287Z,6.00
2018-09-05T10:48:17.815Z,5.72
2018-09-05T10:50:46.479Z,5.95
2018-09-05T10:53:14.857Z,5.20
2018-09-05T10:55:43.356Z,6.12
2018-09-05T10:58:11.887Z,6.08
2018-09-05T11:00:40.464Z,6.45
2018-09-05T11:03:09.245Z,6.47
2018-09-05T11:05:37.840Z,6.10
2018-09-05T11:08:06.496Z,5.53
2018-09-05T11:10:34.947Z,7.05
2018-09-05T11:13:03.300Z,6.40
2018-09-05T11:15:31.694Z,5.25
2018-09-05T11:18:00.217Z,4.62
2018-09-05T11:20:28.763Z,5.22
2018-09-05T11:22:57.978Z,4.67
2018-09-05T11:25:26.384Z,4.80
2018-09-05T11:27:56.872Z,5.05
2018-09-05T11:30:25.430Z,4.90
2018-09-05T11:32:53.992Z,4.42
2018-09-05T11:35:22.661Z,4.03
2018-09-05T11:37:51.372Z,4.33
2018-09-05T11:40:20.652Z,4.35
2018-09-05T11:42:49.100Z,4.37
2018-09-05T11:45:17.612Z,4.37
2018-09-05T11:47:45.990Z,4.35
2018-09-05T11:50:14.414Z,3.87
2018-09-05T11:52:43.520Z,4.10
2018-09-05T11:55:12.041Z,4.10
2018-09-05T11:57:41.216Z,4.42
2018-09-05T12:00:09.652Z,3.87
2018-09-05T12:02:38.062Z,4.03
2018-09-05T12:05:07.192Z,3.42
2018-09-05T12:07:35.665Z,3.50
2018-09-05T12:10:04.965Z,3.80
2018-09-05T12:12:33.332Z,3.42
2018-09-05T12:15:01.760Z,3.77
2018-09-05T12:17:30.290Z,3.75
2018-09-05T12:19:58.832Z,3.77
2018-09-05T12:22:27.515Z,3.72
2018-09-05T12:24:56.028Z,3.58
2018-09-05T12:27:24.557Z,3.62
2018-09-05T12:29:53.136Z,3.80
2018-09-05T12:32:21.845Z,3.60
2018-09-05T12:34:51.265Z,4.12
2018-09-05T12:37:19.779Z,3.95
2018-09-05T12:39:48.185Z,3.85
2018-09-05T12:42:17.224Z,4.92
2018-09-05T12:44:45.852Z,4.55
2018-09-05T12:47:14.205Z,4.40
2018-09-05T12:49:42.736Z,4.65
2018-09-05T12:52:11.160Z,5.35
2018-09-05T12:54:39.574Z,4.42
2018-09-05T12:57:08.177Z,4.40
2018-09-05T12:59:36.693Z,4.05
2018-09-05T13:02:05.181Z,4.65
2018-09-05T13:04:33.629Z,4.55
2018-09-05T13:07:02.225Z,4.90
2018-09-05T13:09:30.717Z,4.67
2018-09-05T13:11:59.364Z,4.85
2018-09-05T13:14:27.842Z,4.80
2018-09-05T13:16:56.272Z,4.50
2018-09-05T13:19:24.657Z,4.55
2018-09-05T13:21:53.062Z,4.37
2018-09-05T13:24:22.451Z,3.87
2018-09-05T13:26:50.944Z,4.05
2018-09-05T13:29:19.473Z,4.78
2018-09-05T13:31:48.089Z,4.30
2018-09-05T13:34:16.641Z,4.00
2018-09-05T13:36:45.140Z,3.85
2018-09-05T13:39:13.617Z,4.83
2018-09-05T13:41:42.325Z,4.05
2018-09-05T13:44:10.756Z,4.12
2018-09-05T13:46:39.397Z,4.28
2018-09-05T13:49:07.836Z,4.50
2018-09-05T13:51:36.895Z,3.92
2018-09-05T13:54:05.452Z,4.00
2018-09-05T13:56:34.160Z,4.28
2018-09-05T13:59:02.628Z,3.90
2018-09-05T14:01:31.208Z,4.33
2018-09-05T14:04:00.184Z,3.90
2018-09-05T14:06:29.034Z,4.25
2018-09-05T14:08:57.442Z,4.03
2018-09-05T14:11:25.856Z,4.12
2018-09-05T14:13:54.964Z,4.47
2018-09-05T14:16:23.573Z,4.00
2018-09-05T14:18:52.680Z,4.03
2018-09-05T14:21:21.833Z,4.22
2018-09-05T14:23:50.372Z,4.20
2018-09-05T14:26:18.753Z,4.00
2018-09-05T14:28:47.237Z,4.40
2018-09-05T14:31:16.517Z,4.22
2018-09-05T14:33:45.033Z,3.87
2018-09-05T14:36:13.605Z,4.28
2018-09-05T14:38:42.496Z,4.40
2018-09-05T14:41:10.961Z,4.67
2018-09-05T14:43:39.532Z,4.55
2018-09-05T14:46:08.025Z,4.10
2018-09-05T14:48:36.762Z,4.65
2018-09-05T14:51:06.142Z,4.08
2018-09-05T14:53:35.253Z,4.67
2018-09-05T14:56:03.965Z,4.33
2018-09-05T14:58:32.600Z,4.35
2018-09-05T15:01:01.277Z,6.28
2018-09-05T15:03:30.344Z,4.45
2018-09-05T15:05:59.176Z,9.65
2018-09-05T15:08:27.695Z,4.60
2018-09-05T15:10:56.416Z,4.15
2018-09-05T15:13:24.921Z,4.72
2018-09-05T15:15:53.598Z,4.67
2018-09-05T15:18:21.968Z,4.60
2018-09-05T15:20:57.134Z,4.53
2018-09-05T15:29:12.086Z,4.78
2018-09-05T15:31:40.728Z,4.60
2018-09-05T15:34:09.268Z,5.00
2018-09-05T15:36:37.961Z,4.70
2018-09-05T15:39:08.859Z,4.87
2018-09-05T15:41:37.603Z,4.30
2018-09-05T15:44:06.420Z,14.20
2018-09-05T15:46:34.988Z,10.65
2018-09-05T15:49:03.675Z,5.00
2018-09-05T15:51:32.812Z,4.78
2018-09-05T15:54:00.991Z,4.92
2018-09-05T15:56:29.397Z,5.00
2018-09-05T15:58:58.200Z,4.72
2018-09-05T16:01:26.662Z,4.70
2018-09-05T16:03:55.298Z,5.03
2018-09-05T16:06:23.929Z,5.30
2018-09-05T16:08:52.303Z,4.83
2018-09-05T16:11:20.818Z,4.83
2018-09-05T16:13:49.836Z,4.97
2018-09-05T16:16:18.508Z,5.45
2018-09-05T16:18:47.147Z,6.20
2018-09-05T16:21:15.676Z,6.58
2018-09-05T16:23:44.109Z,5.12
2018-09-05T16:26:12.532Z,5.90
2018-09-05T16:28:41.091Z,7.12
2018-09-05T16:31:09.825Z,5.17
2018-09-05T16:33:38.422Z,5.12
2018-09-05T16:36:07.149Z,5.83
2018-09-05T16:38:35.535Z,6.40
2018-09-05T16:41:04.136Z,4.72
2018-09-05T16:43:32.551Z,6.95
2018-09-05T16:46:01.150Z,7.30
2018-09-05T16:48:30.514Z,5.40
2018-09-05T16:50:59.590Z,5.65
2018-09-05T16:53:28.132Z,4.95
2018-09-05T16:55:57.213Z,5.33
2018-09-05T16:58:25.732Z,5.15
2018-09-05T17:00:54.365Z,6.58
2018-09-05T17:03:22.757Z,11.93
2018-09-05T17:05:51.161Z,7.65
2018-09-05T17:08:19.773Z,5.08
2018-09-05T17:10:48.397Z,5.37
2018-09-05T17:13:17.472Z,5.62
2018-09-05T17:15:46.183Z,5.17
2018-09-05T17:18:14.623Z,4.97
2018-09-05T17:20:43.160Z,6.08
2018-09-05T17:23:12.417Z,5.65
2018-09-05T17:25:41.450Z,5.03
2018-09-05T17:28:09.985Z,5.03
2018-09-05T17:30:38.480Z,4.72
2018-09-05T17:33:07.612Z,4.92
2018-09-05T17:35:36.905Z,5.00
2018-09-05T17:38:05.562Z,4.87
2018-09-05T17:40:34.827Z,5.83
2018-09-05T17:43:03.342Z,5.05
2018-09-05T17:45:31.849Z,5.28
2018-09-05T17:48:00.236Z,5.10
2018-09-05T17:50:28.854Z,5.28
2018-09-05T17:52:58.285Z,4.85
2018-09-05T17:55:26.710Z,5.53
2018-09-05T17:57:55.876Z,5.78
2018-09-05T18:00:24.441Z,5.40
2018-09-05T18:02:52.844Z,5.58
2018-09-05T18:05:21.628Z,6.40
2018-09-05T18:07:50.838Z,5.60
2018-09-05T18:10:19.281Z,5.90
2018-09-05T18:12:47.910Z,5.37
2018-09-05T18:15:16.799Z,5.45
2018-09-05T18:17:45.243Z,5.12
2018-09-05T18:20:13.820Z,5.05
2018-09-05T18:22:43.211Z,5.20
2018-09-05T18:25:11.734Z,5.87
2018-09-05T18:27:41.057Z,5.45
2018-09-05T18:30:09.718Z,8.58
2018-09-05T18:32:38.329Z,8.28
2018-09-05T18:35:06.870Z,8.25
2018-09-05T18:37:35.378Z,6.53
2018-09-05T18:40:04.213Z,5.95
2018-09-05T18:42:32.646Z,7.25
2018-09-05T18:45:01.365Z,9.80
2018-09-05T18:47:29.858Z,6.65
2018-09-05T18:49:58.381Z,6.62
2018-09-05T18:52:26.882Z,5.62
2018-09-05T18:54:55.498Z,5.53
2018-09-05T18:57:23.976Z,5.80
2018-09-05T18:59:52.655Z,5.40
2018-09-05T19:02:21.678Z,6.12
2018-09-05T19:04:50.341Z,5.90
2018-09-05T19:07:18.745Z,5.90
2018-09-05T19:09:47.748Z,6.05
2018-09-05T19:12:16.417Z,5.97
2018-09-05T19:14:45.065Z,5.78
2018-09-05T19:17:13.775Z,6.25
2018-09-05T19:19:42.425Z,6.78
2018-09-05T19:22:10.913Z,6.00
2018-09-05T19:24:39.488Z,6.75
2018-09-05T19:27:08.101Z,6.20
2018-09-05T19:29:36.537Z,6.80
2018-09-05T19:32:05.450Z,16.93
2018-09-05T19:34:34.438Z,8.05
2018-09-05T19:37:03.008Z,9.80
2018-09-05T19:39:31.743Z,7.78
2018-09-05T19:42:01.314Z,7.28
2018-09-05T19:44:29.853Z,6.58
2018-09-05T19:46:58.574Z,6.42
2018-09-05T19:49:26.989Z,6.42
2018-09-05T19:51:56.400Z,5.90
2018-09-05T19:54:24.957Z,6.80
2018-09-05T19:56:53.456Z,12.95
2018-09-05T19:59:21.935Z,8.35
2018-09-05T20:01:50.321Z,7.90
2018-09-05T20:04:18.880Z,8.50
2018-09-05T20:06:47.478Z,7.65
2018-09-05T20:09:16.457Z,7.33
2018-09-05T20:11:44.902Z,7.75
2018-09-05T20:14:13.325Z,7.33
2018-09-05T20:16:41.845Z,7.05
2018-09-05T20:19:10.280Z,6.83
2018-09-05T20:21:38.797Z,6.65
2018-09-05T20:24:07.192Z,6.80
2018-09-05T20:26:38.860Z,5.90
2018-09-05T20:29:07.292Z,8.78
2018-09-05T20:31:37.631Z,9.00
2018-09-05T20:34:06.204Z,9.00
2018-09-05T20:36:34.906Z,7.92
2018-09-05T20:39:03.390Z,6.97
2018-09-05T20:41:31.802Z,6.30
2018-09-05T20:44:00.565Z,5.75
2018-09-05T20:46:29.115Z,5.60
2018-09-05T20:48:58.198Z,9.28
2018-09-05T20:51:27.594Z,6.97
2018-09-05T20:53:56.892Z,6.10
2018-09-05T20:56:25.412Z,5.65
2018-09-05T20:58:53.801Z,5.60
2018-09-05T21:01:22.480Z,6.62
2018-09-05T21:03:50.988Z,5.95
2018-09-05T21:06:19.549Z,7.00
2018-09-05T21:08:48.093Z,6.10
2018-09-05T21:11:16.530Z,5.78
2018-09-05T21:13:44.936Z,6.03
2018-09-05T21:16:13.712Z,6.20
2018-09-05T21:18:42.232Z,5.80
2018-09-05T21:21:10.785Z,5.92
2018-09-05T21:23:39.284Z,5.83
2018-09-05T21:26:07.769Z,5.58
2018-09-05T21:28:36.168Z,6.03
2018-09-05T21:31:04.668Z,5.72
2018-09-05T21:33:33.248Z,7.80
2018-09-05T21:36:01.916Z,7.40
2018-09-05T21:38:30.320Z,9.73
2018-09-05T21:40:58.756Z,7.08
2018-09-05T21:43:27.372Z,6.00
2018-09-05T21:45:55.965Z,5.95
2018-09-05T21:48:25.338Z,7.80
2018-09-05T21:50:54.010Z,8.43
2018-09-05T21:53:23.276Z,7.03
2018-09-05T21:55:51.673Z,6.17
2018-09-05T21:58:20.112Z,6.80
2018-09-05T22:00:49.013Z,6.62
2018-09-05T22:03:17.527Z,6.17
2018-09-05T22:05:45.958Z,6.42
2018-09-05T22:08:14.602Z,6.47
2018-09-05T22:10:43.008Z,6.45
2018-09-05T22:13:12.178Z,6.45
2018-09-05T22:15:47.709Z,6.85
2018-09-05T22:18:17.062Z,7.00
2018-09-05T22:20:45.536Z,7.35
2018-09-05T22:23:14.033Z,7.22
2018-09-05T22:25:42.433Z,6.72
2018-09-05T22:28:10.812Z,6.55
2018-09-05T22:30:39.432Z,6.80
2018-09-05T22:33:08.544Z,6.83
2018-09-05T22:35:37.665Z,7.15
2018-09-05T22:38:06.072Z,7.10
2018-09-05T22:40:40.103Z,7.55
2018-09-05T22:43:19.824Z,6.87
2018-09-05T22:45:59.564Z,6.65
2018-09-05T22:50:55.404Z,6.97
2018-09-05T22:53:46.304Z,6.60
2018-09-05T22:56:31.724Z,7.20
2018-09-05T22:59:13.473Z,7.03
2018-09-05T23:01:51.844Z,7.12
2018-09-05T23:04:35.190Z,7.03
2018-09-05T23:09:24.073Z,7.17
2018-09-05T23:12:03.825Z,7.17
2018-09-05T23:14:44.676Z,7.33
2018-09-05T23:17:24.420Z,7.37
2018-09-05T23:20:14.602Z,7.58
2018-09-05T23:22:54.430Z,6.72
2018-09-05T23:25:22.984Z,7.85
2018-09-05T23:27:51.364Z,7.70
2018-09-05T23:30:19.853Z,7.70
2018-09-05T23:32:48.300Z,7.65
2018-09-05T23:35:16.688Z,8.03
2018-09-05T23:37:45.085Z,7.62
2018-09-05T23:40:14.134Z,8.10
2018-09-05T23:42:42.922Z,7.78
2018-09-05T23:45:11.422Z,8.23
2018-09-05T23:47:40.324Z,8.03
2018-09-05T23:50:08.776Z,7.90
2018-09-05T23:52:37.272Z,7.67
2018-09-05T23:55:06.686Z,7.97
2018-09-05T23:57:35.189Z,8.70
